Time;durP1;ratioP1;P1;durP2;ratioP2;P2;SDS_P1;SDS_P2;PMS_P1;PMS_P2;Temp;Humidity;BMP_temperature;BMP_pressure;BME280_temperature;BME280_humidity;BME280_pressure;Samples;Min_cycle;Max_cycle;Signal;HPM_P1;HPM_P2
2023/08/20 00:01:23;;;;;;;8.43;3.67;;;20.10;96.70;;;;;;5036627;28;20026;-87
2023/08/20 00:03:51;;;;;;;8.60;4.05;;;20.10;96.70;;;;;;5018519;28;20018;-86
2023/08/20 00:06:18;;;;;;;7.72;3.30;;;20.10;96.70;;;;;;5036171;28;20050;-86
2023/08/20 00:08:44;;;;;;;8.65;4.10;;;20.10;96.70;;;;;;5034099;28;20040;-87
2023/08/20 00:11:11;;;;;;;8.60;4.20;;;20.10;96.70;;;;;;5002213;28;20081;-86
2023/08/20 00:13:36;;;;;;;6.20;3.10;;;20.10;96.70;;;;;;5034732;28;20033;-86
2023/08/20 00:16:03;;;;;;;7.65;2.97;;;20.20;96.70;;;;;;5002015;28;20492;-86
2023/08/20 00:18:29;;;;;;;7.70;3.47;;;20.20;96.70;;;;;;5036153;28;20481;-86
2023/08/20 00:20:55;;;;;;;5.57;3.00;;;20.20;96.60;;;;;;5035915;28;20033;-86
2023/08/20 00:23:21;;;;;;;8.40;3.38;;;20.20;96.60;;;;;;5002005;28;20029;-86
2023/08/20 00:25:47;;;;;;;10.13;2.90;;;20.10;96.60;;;;;;5018334;28;20502;-86
2023/08/20 00:28:13;;;;;;;6.03;2.95;;;20.10;96.60;;;;;;5035700;28;20033;-86
2023/08/20 00:30:39;;;;;;;7.03;2.80;;;20.10;96.60;;;;;;5002134;28;20060;-86
2023/08/20 00:33:05;;;;;;;7.80;3.20;;;20.00;96.60;;;;;;5017860;28;20068;-86
2023/08/20 00:35:31;;;;;;;7.47;3.40;;;20.00;96.60;;;;;;5017905;28;20091;-87
2023/08/20 00:37:56;;;;;;;8.32;3.58;;;20.00;96.70;;;;;;5034369;28;20022;-86
2023/08/20 00:40:22;;;;;;;7.32;3.03;;;20.00;96.70;;;;;;5034386;28;20470;-87
2023/08/20 00:42:49;;;;;;;5.95;3.38;;;19.90;96.70;;;;;;5017783;28;20477;-86
2023/08/20 00:45:16;;;;;;;11.60;3.88;;;19.90;96.60;;;;;;5017767;28;20029;-86
2023/08/20 00:47:42;;;;;;;8.38;3.85;;;19.90;96.60;;;;;;5017859;28;20025;-86
2023/08/20 00:50:09;;;;;;;10.40;4.03;;;19.90;96.60;;;;;;5017519;28;20029;-86
2023/08/20 00:52:35;;;;;;;7.80;3.85;;;19.80;96.60;;;;;;5017426;28;20394;-79
2023/08/20 00:55:12;;;;;;;11.63;3.92;;;19.80;96.70;;;;;;5033972;28;20025;-79
2023/08/20 00:57:39;;;;;;;11.63;3.83;;;19.80;96.70;;;;;;5034034;28;20121;-86
2023/08/20 01:00:09;;;;;;;7.40;3.95;;;19.80;96.70;;;;;;5001124;28;20053;-86
2023/08/20 01:02:35;;;;;;;13.98;3.83;;;19.70;96.80;;;;;;5018072;28;20470;-87
2023/08/20 01:05:04;;;;;;;6.95;3.55;;;19.70;96.90;;;;;;5017387;28;20030;-86
2023/08/20 01:07:51;;;;;;;10.02;4.10;;;19.70;97.00;;;;;;5034980;28;20017;-86
2023/08/20 01:10:27;;;;;;;8.88;4.20;;;19.70;97.00;;;;;;5035064;28;20030;-86
2023/08/20 01:12:53;;;;;;;7.10;3.55;;;19.70;97.00;;;;;;5035028;28;20032;-87
2023/08/20 01:15:19;;;;;;;9.02;4.07;;;19.70;97.10;;;;;;5017117;28;20025;-87
2023/08/20 01:17:47;;;;;;;8.35;3.25;;;19.70;97.10;;;;;;5017163;28;20025;-87
2023/08/20 01:20:14;;;;;;;11.05;4.20;;;19.70;97.20;;;;;;5016443;28;20057;-87
2023/08/20 01:22:48;;;;;;;10.98;3.70;;;19.60;97.20;;;;;;5017124;28;20116;-86
2023/08/20 01:25:41;;;;;;;9.20;4.00;;;19.70;97.30;;;;;;5033489;28;20116;-86
2023/08/20 01:28:29;;;;;;;7.10;3.67;;;19.70;97.70;;;;;;5033429;28;20033;-86
2023/08/20 01:30:58;;;;;;;8.02;4.13;;;19.70;97.50;;;;;;5033363;28;20021;-87
2023/08/20 01:33:25;;;;;;;7.53;3.63;;;19.70;97.80;;;;;;5034444;28;20021;-86
2023/08/20 01:35:52;;;;;;;9.48;3.45;;;19.80;97.70;;;;;;5016954;28;20067;-86
2023/08/20 01:38:17;;;;;;;8.13;3.63;;;19.80;97.80;;;;;;5016728;28;20470;-86
2023/08/20 01:40:43;;;;;;;8.60;3.92;;;19.80;97.90;;;;;;5016762;28;20088;-86
2023/08/20 01:43:09;;;;;;;7.95;3.47;;;19.80;97.90;;;;;;5033387;28;20068;-86
2023/08/20 01:45:35;;;;;;;7.07;3.30;;;19.80;97.90;;;;;;5016906;28;20092;-86
2023/08/20 01:48:00;;;;;;;7.50;3.28;;;19.80;97.90;;;;;;5034394;28;20038;-86
2023/08/20 01:50:26;;;;;;;6.40;3.33;;;19.80;97.90;;;;;;5000419;28;20060;-86
2023/08/20 01:52:52;;;;;;;9.20;3.30;;;19.70;97.80;;;;;;5016517;28;20409;-86
2023/08/20 01:55:17;;;;;;;6.15;3.55;;;19.80;97.80;;;;;;5016511;28;20430;-86
2023/08/20 01:57:43;;;;;;;7.43;3.63;;;19.70;97.70;;;;;;5032858;28;20486;-85
2023/08/20 02:00:09;;;;;;;7.68;3.38;;;19.70;97.70;;;;;;5029215;28;20502;-87
2023/08/20 02:02:35;;;;;;;8.73;4.22;;;19.70;97.70;;;;;;4996698;28;20069;-86
2023/08/20 02:05:01;;;;;;;10.20;4.15;;;19.60;97.70;;;;;;4996736;28;20125;-85
2023/08/20 02:07:27;;;;;;;7.50;3.53;;;19.60;97.70;;;;;;5014157;28;20022;-86
2023/08/20 02:09:52;;;;;;;9.45;3.67;;;19.50;97.70;;;;;;4996670;28;20083;-86
2023/08/20 02:12:18;;;;;;;11.98;4.13;;;19.50;97.80;;;;;;5014783;28;20045;-86
2023/08/20 02:14:44;;;;;;;10.27;3.92;;;19.40;97.80;;;;;;5012851;28;20033;-87
2023/08/20 02:17:12;;;;;;;8.73;4.35;;;19.50;97.90;;;;;;4996707;28;20030;-86
2023/08/20 02:19:38;;;;;;;6.95;3.90;;;19.50;97.90;;;;;;4996830;28;20018;-86
2023/08/20 02:22:04;;;;;;;10.73;4.28;;;19.40;98.00;;;;;;4996442;28;20504;-86
2023/08/20 02:24:29;;;;;;;12.10;4.20;;;19.40;98.00;;;;;;5012741;28;20026;-87
2023/08/20 02:26:55;;;;;;;8.05;4.05;;;19.40;98.00;;;;;;4996690;28;20032;-86
2023/08/20 02:29:21;;;;;;;8.60;4.45;;;19.40;98.10;;;;;;5012629;28;20034;-87
2023/08/20 02:31:46;;;;;;;11.07;4.38;;;19.30;98.20;;;;;;4995929;28;20030;-87
2023/08/20 02:34:12;;;;;;;8.75;3.95;;;19.40;98.30;;;;;;5012697;28;20108;-87
2023/08/20 02:36:37;;;;;;;9.63;4.38;;;19.30;98.30;;;;;;5012565;28;20514;-86
2023/08/20 02:39:07;;;;;;;9.15;4.57;;;19.30;98.40;;;;;;4996667;28;20091;-87
2023/08/20 02:41:34;;;;;;;8.52;4.70;;;19.30;98.40;;;;;;4996502;28;20029;-85
2023/08/20 02:43:59;;;;;;;9.48;4.57;;;19.30;98.50;;;;;;5012463;28;20021;-86
2023/08/20 02:46:25;;;;;;;8.38;4.10;;;19.20;98.60;;;;;;4996341;28;20029;-87
2023/08/20 02:48:51;;;;;;;11.68;4.10;;;19.20;98.70;;;;;;5012456;28;20034;-86
2023/08/20 02:51:16;;;;;;;10.57;4.68;;;19.20;98.70;;;;;;4996119;28;20033;-85
2023/08/20 02:53:42;;;;;;;10.50;5.28;;;19.10;98.80;;;;;;4996064;28;20081;-86
2023/08/20 02:56:09;;;;;;;8.50;4.35;;;19.10;99.00;;;;;;5012311;28;20072;-86
2023/08/20 02:58:34;;;;;;;9.25;4.50;;;19.10;99.00;;;;;;4995972;28;20022;-86
2023/08/20 03:01:00;;;;;;;8.57;4.43;;;19.10;99.10;;;;;;4995844;28;20049;-86
2023/08/20 03:03:25;;;;;;;6.90;4.25;;;19.10;99.20;;;;;;5012363;28;20042;-87
2023/08/20 03:05:51;;;;;;;7.82;4.38;;;19.00;99.20;;;;;;5012285;28;20033;-86
2023/08/20 03:08:17;;;;;;;10.98;4.78;;;19.00;99.30;;;;;;4995934;28;20030;-87
2023/08/20 03:10:42;;;;;;;9.15;4.10;;;19.00;99.40;;;;;;5012326;28;20030;-87
2023/08/20 03:13:08;;;;;;;9.88;4.32;;;19.00;99.40;;;;;;5012243;28;20069;-87
2023/08/20 03:15:33;;;;;;;7.45;4.07;;;19.00;99.40;;;;;;4995897;28;20472;-86
2023/08/20 03:17:59;;;;;;;6.85;4.28;;;19.00;99.40;;;;;;5012340;28;20072;-87
2023/08/20 03:20:25;;;;;;;10.00;5.00;;;18.90;99.40;;;;;;5012261;28;20033;-86
2023/08/20 03:22:51;;;;;;;10.50;4.75;;;18.90;99.40;;;;;;4995801;28;20045;-87
2023/08/20 03:25:16;;;;;;;13.15;5.70;;;18.90;99.30;;;;;;5012314;28;20022;-87
2023/08/20 03:27:42;;;;;;;14.23;6.22;;;18.90;99.30;;;;;;4995608;28;20034;-86
2023/08/20 03:30:08;;;;;;;9.75;6.75;;;18.80;99.40;;;;;;5011973;28;20026;-86
2023/08/20 03:32:34;;;;;;;11.65;7.60;;;18.80;99.40;;;;;;4995993;28;20038;-86
2023/08/20 03:34:59;;;;;;;15.65;9.40;;;18.80;99.50;;;;;;4995757;28;20117;-87
2023/08/20 03:37:28;;;;;;;17.30;11.40;;;18.80;99.60;;;;;;4995767;28;20037;-86
2023/08/20 03:39:54;;;;;;;21.08;13.05;;;18.70;99.70;;;;;;5011965;28;20117;-87
2023/08/20 03:42:19;;;;;;;15.63;9.63;;;18.70;99.80;;;;;;5011747;28;20562;-86
2023/08/20 03:44:45;;;;;;;15.93;7.95;;;18.70;99.80;;;;;;4997892;28;20036;-86
2023/08/20 03:47:11;;;;;;;14.80;7.68;;;18.70;99.80;;;;;;5015433;28;20508;-86
2023/08/20 03:49:37;;;;;;;15.68;8.55;;;18.60;99.70;;;;;;5015701;28;20064;-86
2023/08/20 03:52:03;;;;;;;16.42;10.43;;;18.60;99.70;;;;;;5015286;28;20022;-86
2023/08/20 03:54:29;;;;;;;14.57;9.57;;;18.50;99.80;;;;;;5016935;28;20030;-86
2023/08/20 03:56:55;;;;;;;10.88;7.80;;;18.50;99.90;;;;;;4999333;28;20030;-85
2023/08/20 03:59:21;;;;;;;12.90;7.32;;;18.50;99.90;;;;;;5018525;28;20113;-83
2023/08/20 04:01:47;;;;;;;9.38;5.43;;;18.40;99.90;;;;;;5018770;28;20045;-85
2023/08/20 04:04:12;;;;;;;7.95;5.20;;;18.40;99.90;;;;;;5034909;28;20044;-84
2023/08/20 04:06:38;;;;;;;8.55;4.85;;;18.40;99.90;;;;;;5018752;28;20034;-85
2023/08/20 04:09:05;;;;;;;8.23;4.15;;;18.30;99.90;;;;;;5002107;28;20060;-85
2023/08/20 04:11:30;;;;;;;6.70;4.43;;;18.30;99.90;;;;;;5018598;28;20038;-85
2023/08/20 04:13:56;;;;;;;6.22;3.85;;;18.30;99.90;;;;;;5002041;28;20045;-85
2023/08/20 04:16:22;;;;;;;8.93;4.50;;;18.20;99.90;;;;;;5001858;28;20037;-85
2023/08/20 04:18:47;;;;;;;6.80;5.07;;;18.20;99.90;;;;;;5018492;28;20076;-85
2023/08/20 04:21:13;;;;;;;7.50;5.75;;;18.10;99.90;;;;;;5036066;28;20072;-85
2023/08/20 04:23:39;;;;;;;9.45;5.32;;;18.10;99.90;;;;;;5018403;28;20029;-86
2023/08/20 04:26:04;;;;;;;9.73;5.72;;;18.10;99.90;;;;;;5001909;28;20115;-85
2023/08/20 04:28:30;;;;;;;7.97;5.00;;;18.10;99.90;;;;;;5018281;28;20116;-85
2023/08/20 04:30:56;;;;;;;11.43;6.82;;;18.10;99.90;;;;;;5001738;28;20041;-85
2023/08/20 04:33:22;;;;;;;12.82;7.63;;;18.10;99.90;;;;;;5017979;28;20079;-85
2023/08/20 04:35:50;;;;;;;12.65;8.25;;;18.10;99.90;;;;;;5001708;28;20030;-85
2023/08/20 04:38:16;;;;;;;14.52;9.27;;;18.10;99.90;;;;;;5017886;28;20143;-85
2023/08/20 04:40:42;;;;;;;15.23;9.75;;;18.10;99.90;;;;;;5001582;28;20112;-86
2023/08/20 04:43:08;;;;;;;14.18;9.55;;;18.10;99.90;;;;;;5001821;28;20026;-85
2023/08/20 04:45:34;;;;;;;13.35;8.70;;;18.10;99.90;;;;;;5035431;28;20484;-85
2023/08/20 04:48:00;;;;;;;16.63;9.77;;;18.10;99.90;;;;;;5034287;28;20033;-86
2023/08/20 04:50:25;;;;;;;16.55;9.20;;;18.10;99.90;;;;;;5001326;28;20048;-85
2023/08/20 04:52:51;;;;;;;12.90;9.32;;;18.10;99.90;;;;;;5017600;28;20473;-85
2023/08/20 04:55:17;;;;;;;14.68;9.88;;;18.10;99.90;;;;;;4999134;28;20029;-85
2023/08/20 04:57:42;;;;;;;13.82;8.27;;;18.10;99.90;;;;;;5000306;28;20025;-85
2023/08/20 05:00:09;;;;;;;10.80;6.20;;;18.10;99.90;;;;;;4999423;28;20044;-85
2023/08/20 05:02:35;;;;;;;10.80;6.90;;;18.10;99.90;;;;;;4999654;28;20038;-84
2023/08/20 05:05:02;;;;;;;8.20;5.55;;;18.10;99.90;;;;;;5017283;28;20033;-85
2023/08/20 05:07:27;;;;;;;9.32;5.85;;;18.10;99.90;;;;;;5017582;28;20030;-79
2023/08/20 05:09:53;;;;;;;7.18;5.50;;;18.10;99.90;;;;;;5016473;28;20499;-79
2023/08/20 05:12:19;;;;;;;5.22;4.05;;;18.10;99.90;;;;;;5017396;28;20034;-79
2023/08/20 05:14:44;;;;;;;7.05;4.57;;;18.10;99.90;;;;;;5017067;28;20437;-79
2023/08/20 05:17:10;;;;;;;8.93;5.38;;;18.10;99.90;;;;;;5000787;28;20022;-79
2023/08/20 05:19:35;;;;;;;9.85;5.75;;;18.10;99.90;;;;;;5017359;28;20029;-85
2023/08/20 05:22:01;;;;;;;10.50;6.60;;;18.00;99.90;;;;;;5017531;28;20381;-85
2023/08/20 05:24:27;;;;;;;8.73;6.57;;;18.00;99.90;;;;;;5000748;28;20472;-85
2023/08/20 05:27:08;;;;;;;13.45;7.28;;;18.10;99.90;;;;;;5034907;28;20030;-85
2023/08/20 05:29:34;;;;;;;12.20;7.72;;;18.10;99.90;;;;;;5000640;28;20057;-85
2023/08/20 05:31:59;;;;;;;11.40;8.05;;;18.10;99.90;;;;;;5000525;28;20060;-85
2023/08/20 05:34:25;;;;;;;15.90;8.68;;;18.10;99.90;;;;;;5000572;28;20025;-85
2023/08/20 05:36:51;;;;;;;15.63;8.40;;;18.10;99.90;;;;;;5016806;28;20041;-85
2023/08/20 05:39:16;;;;;;;12.82;8.30;;;18.20;99.90;;;;;;5000359;28;20026;-85
2023/08/20 05:41:42;;;;;;;14.60;8.40;;;18.20;99.90;;;;;;5016813;28;20034;-85
2023/08/20 05:44:09;;;;;;;12.10;9.23;;;18.20;99.90;;;;;;5000534;28;20029;-84
2023/08/20 05:46:35;;;;;;;13.25;8.30;;;18.20;99.90;;;;;;5017075;28;20021;-85
2023/08/20 05:49:00;;;;;;;12.52;8.10;;;18.20;99.90;;;;;;5016538;28;20039;-85
2023/08/20 05:51:26;;;;;;;14.02;8.32;;;18.30;99.90;;;;;;5016600;28;20025;-85
2023/08/20 05:53:52;;;;;;;11.45;7.95;;;18.40;99.90;;;;;;5016406;28;20038;-85
2023/08/20 05:56:17;;;;;;;13.80;8.55;;;18.40;99.90;;;;;;5000212;28;20078;-85
2023/08/20 05:58:43;;;;;;;11.98;7.78;;;18.40;99.90;;;;;;5000181;28;20022;-85
2023/08/20 06:01:08;;;;;;;13.32;8.23;;;18.50;99.90;;;;;;5016484;28;20108;-85
2023/08/20 06:03:34;;;;;;;11.90;7.97;;;18.50;99.90;;;;;;5034042;28;20025;-85
2023/08/20 06:06:00;;;;;;;12.82;7.40;;;18.60;99.90;;;;;;4999664;28;20025;-85
2023/08/20 06:08:25;;;;;;;11.30;7.85;;;18.70;99.90;;;;;;5016112;28;20029;-85
2023/08/20 06:10:52;;;;;;;12.20;7.88;;;18.70;99.90;;;;;;5000014;28;20040;-85
2023/08/20 06:13:17;;;;;;;12.57;7.38;;;18.80;99.90;;;;;;5016298;28;20076;-85
2023/08/20 06:15:43;;;;;;;10.15;6.55;;;18.70;99.90;;;;;;4999742;28;20026;-85
2023/08/20 06:18:09;;;;;;;12.77;7.47;;;18.80;99.90;;;;;;5016055;28;20031;-85
2023/08/20 06:20:34;;;;;;;12.35;7.75;;;18.80;99.90;;;;;;4999747;28;20029;-85
2023/08/20 06:23:00;;;;;;;15.75;8.18;;;18.90;99.90;;;;;;5016438;28;20033;-85
2023/08/20 06:25:25;;;;;;;14.15;7.75;;;18.90;99.90;;;;;;5016286;28;20029;-86
2023/08/20 06:27:51;;;;;;;11.23;6.20;;;18.90;99.90;;;;;;4999729;28;20033;-85
2023/08/20 06:30:17;;;;;;;12.23;6.53;;;18.90;99.90;;;;;;4999586;28;20382;-85
2023/08/20 06:32:44;;;;;;;11.75;6.60;;;18.90;99.90;;;;;;4999490;28;20045;-85
2023/08/20 06:35:11;;;;;;;16.80;5.65;;;19.00;99.90;;;;;;5015942;28;20477;-85
2023/08/20 06:37:38;;;;;;;10.30;6.05;;;19.00;99.90;;;;;;5015853;28;20021;-86
2023/08/20 06:40:04;;;;;;;10.43;4.97;;;19.00;99.90;;;;;;5033458;28;20112;-85
2023/08/20 06:42:30;;;;;;;8.55;5.03;;;19.00;99.90;;;;;;4999357;28;20030;-85
2023/08/20 06:44:55;;;;;;;10.63;4.72;;;19.00;99.90;;;;;;5016117;28;20033;-85
2023/08/20 06:47:21;;;;;;;14.07;5.30;;;19.10;99.90;;;;;;4999235;28;20052;-85
2023/08/20 06:49:47;;;;;;;11.00;5.00;;;19.20;99.90;;;;;;5016030;28;20029;-86
2023/08/20 06:52:12;;;;;;;9.23;4.45;;;19.20;99.90;;;;;;4999316;28;20025;-86
2023/08/20 06:54:38;;;;;;;9.85;3.80;;;19.20;99.90;;;;;;4999308;28;20546;-86
2023/08/20 06:57:04;;;;;;;11.18;5.15;;;19.30;99.90;;;;;;5016488;28;20470;-87
2023/08/20 06:59:29;;;;;;;11.32;3.92;;;19.30;99.90;;;;;;4999165;28;20068;-87
2023/08/20 07:01:55;;;;;;;9.27;3.60;;;19.30;99.90;;;;;;4999262;28;20049;-85
2023/08/20 07:04:20;;;;;;;10.20;4.03;;;19.40;99.90;;;;;;5015707;28;20036;-85
2023/08/20 07:06:46;;;;;;;6.57;3.75;;;19.40;99.90;;;;;;5033236;28;20073;-84
2023/08/20 07:09:12;;;;;;;10.18;4.20;;;19.50;99.90;;;;;;4999319;28;20447;-85
2023/08/20 07:11:37;;;;;;;11.07;4.85;;;19.50;99.90;;;;;;5015431;28;20504;-87
2023/08/20 07:14:03;;;;;;;9.25;4.60;;;19.60;99.90;;;;;;4999166;28;20057;-86
2023/08/20 07:16:29;;;;;;;11.20;3.45;;;19.50;99.90;;;;;;4998908;28;20124;-85
2023/08/20 07:18:54;;;;;;;6.93;2.97;;;19.60;99.90;;;;;;5000313;28;20026;-85
2023/08/20 07:21:20;;;;;;;10.77;3.65;;;19.60;99.80;;;;;;5002921;28;20060;-85
2023/08/20 07:23:46;;;;;;;9.02;2.90;;;19.70;99.60;;;;;;5003056;28;20040;-86
2023/08/20 07:26:15;;;;;;;8.10;2.58;;;19.70;99.30;;;;;;5002968;28;20124;-85
2023/08/20 07:28:56;;;;;;;10.80;2.47;;;19.80;99.20;;;;;;5020299;28;20025;-85
2023/08/20 07:31:26;;;;;;;12.73;2.72;;;19.80;99.10;;;;;;5019305;28;20099;-85
2023/08/20 07:33:54;;;;;;;10.52;3.05;;;19.80;99.00;;;;;;5037014;28;20088;-86
2023/08/20 07:36:23;;;;;;;10.30;3.03;;;19.90;98.90;;;;;;5003094;28;20029;-86
2023/08/20 07:38:50;;;;;;;8.70;2.92;;;19.90;98.70;;;;;;5019205;28;20025;-87
2023/08/20 07:41:16;;;;;;;10.13;2.42;;;19.90;98.50;;;;;;5018894;28;20029;-85
2023/08/20 07:43:41;;;;;;;7.63;2.22;;;20.00;98.30;;;;;;5018973;28;20039;-85
2023/08/20 07:46:08;;;;;;;6.95;2.13;;;20.00;98.20;;;;;;5037024;28;20535;-85
2023/08/20 07:48:35;;;;;;;8.63;2.22;;;20.10;98.10;;;;;;5036556;28;20057;-79
2023/08/20 07:51:02;;;;;;;7.45;2.70;;;20.10;98.00;;;;;;5002543;28;20040;-79
2023/08/20 07:53:28;;;;;;;6.70;2.33;;;20.20;98.00;;;;;;5002329;28;20441;-78
2023/08/20 07:55:55;;;;;;;6.13;1.55;;;20.20;97.90;;;;;;5002180;28;20018;-79
2023/08/20 07:58:20;;;;;;;9.63;2.70;;;20.20;97.80;;;;;;5002491;28;20049;-79
2023/08/20 08:00:46;;;;;;;7.30;2.45;;;20.30;97.70;;;;;;4998877;28;20081;-79
2023/08/20 08:03:14;;;;;;;10.80;2.50;;;20.30;97.60;;;;;;5015080;28;20436;-79
2023/08/20 08:05:40;;;;;;;9.65;2.72;;;20.40;97.50;;;;;;4999162;28;20053;-79
2023/08/20 08:08:06;;;;;;;6.68;1.90;;;20.50;97.50;;;;;;5015141;28;20132;-81
2023/08/20 08:10:31;;;;;;;7.97;2.45;;;20.50;97.30;;;;;;5031612;28;20513;-79
2023/08/20 08:12:57;;;;;;;7.45;2.00;;;20.50;97.10;;;;;;5015089;28;20022;-79
2023/08/20 08:15:23;;;;;;;7.00;2.47;;;20.60;97.00;;;;;;5014904;28;20026;-79
2023/08/20 08:17:48;;;;;;;8.73;2.28;;;20.60;96.90;;;;;;5015050;28;20165;-79
2023/08/20 08:20:14;;;;;;;5.65;1.30;;;20.70;96.80;;;;;;4998585;28;20026;-80
2023/08/20 08:22:40;;;;;;;6.30;1.30;;;20.70;96.40;;;;;;5031435;28;20379;-79
2023/08/20 08:25:06;;;;;;;7.93;1.70;;;20.80;96.10;;;;;;5015229;28;20037;-79
2023/08/20 08:27:32;;;;;;;5.57;1.13;;;20.90;96.00;;;;;;5031483;28;20030;-79
2023/08/20 08:29:57;;;;;;;6.63;1.98;;;20.90;95.80;;;;;;5030930;28;20500;-79
2023/08/20 08:32:23;;;;;;;4.15;1.50;;;21.00;95.40;;;;;;4998156;28;20552;-79
2023/08/20 08:34:49;;;;;;;7.53;1.60;;;21.00;95.20;;;;;;5014596;28;20030;-79
2023/08/20 08:37:15;;;;;;;8.05;1.35;;;21.10;94.90;;;;;;5014708;28;20029;-79
2023/08/20 08:39:41;;;;;;;7.75;1.10;;;21.10;94.70;;;;;;5014524;28;20034;-79
2023/08/20 08:42:07;;;;;;;6.40;1.33;;;21.10;94.30;;;;;;5014543;28;20088;-79
2023/08/20 08:44:34;;;;;;;8.25;1.10;;;21.20;94.30;;;;;;4998167;28;20401;-79
2023/08/20 08:47:01;;;;;;;7.43;1.40;;;21.30;94.20;;;;;;5014559;28;20110;-79
2023/08/20 08:49:29;;;;;;;5.93;1.17;;;21.40;93.60;;;;;;5014266;28;20406;-79
2023/08/20 08:51:57;;;;;;;8.05;1.17;;;21.40;93.50;;;;;;5015356;28;20026;-79
2023/08/20 08:54:23;;;;;;;3.03;0.80;;;21.50;93.50;;;;;;5030666;28;20030;-79
2023/08/20 08:56:50;;;;;;;7.25;1.05;;;21.60;93.30;;;;;;5014073;28;20025;-79
2023/08/20 08:59:16;;;;;;;4.15;0.82;;;21.60;92.80;;;;;;5015389;28;20033;-78
2023/08/20 09:01:41;;;;;;;4.97;0.90;;;21.70;92.60;;;;;;5009632;28;20030;-78
2023/08/20 09:04:08;;;;;;;5.50;1.25;;;21.70;92.30;;;;;;5030536;28;20030;-79
2023/08/20 09:06:45;;;;;;;5.30;1.20;;;21.80;92.10;;;;;;5013912;28;20029;-79
2023/08/20 09:09:11;;;;;;;7.65;1.10;;;21.90;91.90;;;;;;5013966;28;20030;-80
2023/08/20 09:11:36;;;;;;;5.65;1.00;;;21.90;91.30;;;;;;4997520;28;20156;-79
2023/08/20 09:14:02;;;;;;;8.20;1.05;;;22.00;91.10;;;;;;5030471;28;20382;-80
2023/08/20 09:16:30;;;;;;;5.00;0.82;;;22.10;91.00;;;;;;5030350;28;20041;-79
2023/08/20 09:18:59;;;;;;;2.38;0.50;;;22.10;90.60;;;;;;5014073;28;20385;-79
2023/08/20 09:21:29;;;;;;;3.42;0.60;;;22.20;90.30;;;;;;5013659;28;20025;-79
2023/08/20 09:23:56;;;;;;;3.67;0.50;;;22.30;88.10;;;;;;5013796;28;20500;-78
2023/08/20 09:26:22;;;;;;;4.75;0.70;;;22.30;87.80;;;;;;5013734;28;20026;-80
2023/08/20 09:28:48;;;;;;;2.70;0.43;;;22.40;86.70;;;;;;5013643;28;20422;-79
2023/08/20 09:31:14;;;;;;;3.22;0.63;;;22.50;85.90;;;;;;5030068;28;20034;-79
2023/08/20 09:33:50;;;;;;;3.40;0.55;;;22.50;85.80;;;;;;5030042;28;20030;-79
2023/08/20 09:36:17;;;;;;;3.60;0.50;;;22.60;85.80;;;;;;5014632;28;20022;-79
2023/08/20 09:38:42;;;;;;;5.22;0.82;;;22.70;85.30;;;;;;5030089;28;20030;-79
2023/08/20 09:41:09;;;;;;;3.75;0.60;;;22.80;85.40;;;;;;5012560;28;20030;-79
2023/08/20 09:43:38;;;;;;;3.45;0.60;;;22.80;84.50;;;;;;5014455;28;20030;-80
2023/08/20 09:46:05;;;;;;;1.85;0.35;;;22.90;83.70;;;;;;5014603;28;20106;-80
2023/08/20 09:48:37;;;;;;;2.15;0.40;;;22.90;83.10;;;;;;5013403;28;20033;-79
2023/08/20 09:51:11;;;;;;;4.40;0.50;;;23.00;82.80;;;;;;5013362;28;20030;-77
2023/08/20 09:53:50;;;;;;;3.13;0.65;;;23.10;82.10;;;;;;5013396;28;20462;-79
2023/08/20 09:56:26;;;;;;;1.80;0.40;;;23.20;81.60;;;;;;5029452;28;20037;-79
2023/08/20 09:58:53;;;;;;;0.75;0.22;;;23.20;81.00;;;;;;5029445;28;20076;-80
2023/08/20 10:01:19;;;;;;;3.20;0.68;;;23.30;81.00;;;;;;5041387;28;20441;-79
2023/08/20 10:03:45;;;;;;;5.03;0.70;;;23.30;80.40;;;;;;5016153;28;20064;-80
2023/08/20 10:06:11;;;;;;;2.40;0.50;;;23.40;79.80;;;;;;5034091;28;20029;-79
2023/08/20 10:08:37;;;;;;;3.38;0.65;;;23.40;79.70;;;;;;4999938;28;20509;-80
2023/08/20 10:11:03;;;;;;;2.70;0.47;;;23.50;79.90;;;;;;5016285;28;20485;-80
2023/08/20 10:13:30;;;;;;;4.88;0.50;;;23.60;78.60;;;;;;5033994;28;20033;-80
2023/08/20 10:15:56;;;;;;;1.98;0.40;;;23.70;77.40;;;;;;5033969;28;20405;-80
2023/08/20 10:18:22;;;;;;;4.03;0.40;;;23.80;77.10;;;;;;5033753;28;20033;-79
2023/08/20 10:20:51;;;;;;;2.50;0.40;;;24.00;77.20;;;;;;5016074;28;20085;-81
2023/08/20 10:23:24;;;;;;;1.30;0.30;;;24.20;77.10;;;;;;5016163;28;20025;-80
2023/08/20 10:25:52;;;;;;;2.53;0.45;;;24.40;76.70;;;;;;5000071;28;20052;-80
2023/08/20 10:28:24;;;;;;;2.55;0.30;;;24.80;76.10;;;;;;5033868;28;20039;-80
2023/08/20 10:31:11;;;;;;;1.33;0.30;;;25.10;74.60;;;;;;5033704;28;20036;-80
2023/08/20 10:33:50;;;;;;;2.70;0.40;;;25.60;73.70;;;;;;5033365;28;20029;-81
2023/08/20 10:36:28;;;;;;;1.40;0.30;;;26.00;71.80;;;;;;5033389;28;20018;-81
2023/08/20 10:38:58;;;;;;;1.77;0.30;;;26.50;72.20;;;;;;5033657;28;20484;-81
2023/08/20 10:41:28;;;;;;;1.13;0.20;;;27.10;69.70;;;;;;5015758;28;20021;-81
2023/08/20 10:44:00;;;;;;;1.65;0.20;;;27.80;69.10;;;;;;5015827;28;20034;-81
2023/08/20 10:46:31;;;;;;;0.90;0.20;;;28.40;66.70;;;;;;5033425;28;20504;-81
2023/08/20 10:48:58;;;;;;;2.33;0.38;;;29.10;65.40;;;;;;5015767;28;20029;-80
2023/08/20 10:51:28;;;;;;;1.75;0.40;;;29.70;63.60;;;;;;5033297;28;20477;-82
2023/08/20 10:54:00;;;;;;;2.55;0.40;;;30.40;63.80;;;;;;5033053;28;20022;-82
2023/08/20 10:56:51;;;;;;;3.63;0.40;;;31.00;62.30;;;;;;5033275;28;20021;-81
2023/08/20 10:59:29;;;;;;;1.90;0.47;;;31.80;60.10;;;;;;5015663;28;20025;-81
2023/08/20 11:01:56;;;;;;;3.30;0.65;;;32.40;58.60;;;;;;5012282;28;20404;-82
2023/08/20 11:04:26;;;;;;;1.15;0.40;;;33.00;57.70;;;;;;5012002;28;20026;-82
2023/08/20 11:06:56;;;;;;;4.13;0.50;;;33.60;57.20;;;;;;5012428;28;20420;-83
2023/08/20 11:09:24;;;;;;;3.28;0.60;;;34.10;54.40;;;;;;5012133;28;20034;-81
2023/08/20 11:11:51;;;;;;;2.17;0.45;;;34.50;53.40;;;;;;5013712;28;20029;-79
2023/08/20 11:14:19;;;;;;;3.55;0.50;;;34.70;50.90;;;;;;5012279;28;20022;-81
2023/08/20 11:16:45;;;;;;;1.50;0.43;;;34.80;49.50;;;;;;5013381;28;20030;-81
2023/08/20 11:19:12;;;;;;;2.67;0.40;;;34.90;47.50;;;;;;5013635;28;20018;-78
2023/08/20 11:21:39;;;;;;;1.75;0.43;;;34.70;46.90;;;;;;5013252;28;20026;-81
2023/08/20 11:24:06;;;;;;;2.95;0.40;;;34.70;46.80;;;;;;5011976;28;20367;-81
2023/08/20 11:26:32;;;;;;;2.22;0.50;;;34.90;46.10;;;;;;5013188;28;20022;-81
2023/08/20 11:28:58;;;;;;;4.10;0.50;;;35.00;45.40;;;;;;5011906;28;20033;-81
2023/08/20 11:31:25;;;;;;;1.48;0.50;;;35.30;45.30;;;;;;5028644;28;20026;-81
2023/08/20 11:33:50;;;;;;;2.05;0.50;;;35.60;44.80;;;;;;5013225;28;20044;-81
2023/08/20 11:36:18;;;;;;;3.10;0.45;;;35.80;45.00;;;;;;5011812;28;20481;-81
2023/08/20 11:38:53;;;;;;;1.65;0.50;;;36.20;44.50;;;;;;5011939;28;20018;-81
2023/08/20 11:41:20;;;;;;;1.50;0.50;;;36.40;43.40;;;;;;5011798;28;20018;-81
2023/08/20 11:43:47;;;;;;;3.78;0.60;;;36.60;42.80;;;;;;5011835;28;20033;-80
2023/08/20 11:46:14;;;;;;;3.42;0.77;;;36.90;42.40;;;;;;5011599;28;20390;-82
2023/08/20 11:49:05;;;;;;;2.85;0.55;;;37.00;41.90;;;;;;5011747;28;20109;-82
2023/08/20 11:51:37;;;;;;;2.00;0.50;;;37.20;41.90;;;;;;5011503;28;20022;-82
2023/08/20 11:54:07;;;;;;;2.88;0.60;;;37.40;41.60;;;;;;5013086;28;20434;-82
2023/08/20 11:56:34;;;;;;;2.42;0.50;;;37.60;41.90;;;;;;5012994;28;20022;-81
2023/08/20 11:59:01;;;;;;;2.63;0.57;;;37.80;41.90;;;;;;5011726;28;20381;-82
2023/08/20 12:01:31;;;;;;;3.15;0.68;;;38.00;41.50;;;;;;5024338;28;20095;-82
2023/08/20 12:04:05;;;;;;;2.45;0.50;;;38.20;41.30;;;;;;5032715;28;20083;-82
2023/08/20 12:06:31;;;;;;;2.95;0.55;;;38.40;41.30;;;;;;5018282;28;20034;-80
2023/08/20 12:09:00;;;;;;;2.25;0.50;;;38.50;40.80;;;;;;5036292;28;20466;-80
2023/08/20 12:11:27;;;;;;;2.75;0.60;;;38.60;40.50;;;;;;5036029;28;20030;-79
2023/08/20 12:13:53;;;;;;;2.00;0.40;;;38.50;40.10;;;;;;5036235;28;20083;-77
2023/08/20 12:16:22;;;;;;;1.95;0.50;;;38.50;39.90;;;;;;5035910;28;20034;-82
2023/08/20 12:18:49;;;;;;;1.52;0.50;;;38.40;40.00;;;;;;5036072;28;20044;-89
2023/08/20 12:21:17;;;;;;;3.22;0.57;;;38.40;39.80;;;;;;5018478;28;20025;-88
2023/08/20 12:23:43;;;;;;;3.70;0.60;;;38.60;39.90;;;;;;5018590;28;20037;-91
2023/08/20 12:26:09;;;;;;;1.48;0.40;;;38.60;38.90;;;;;;5018668;28;20033;-87
2023/08/20 12:28:35;;;;;;;2.83;0.57;;;38.60;39.10;;;;;;5018171;28;20495;-89
2023/08/20 12:31:00;;;;;;;2.28;0.57;;;38.60;39.20;;;;;;5001798;28;20080;-89
2023/08/20 12:33:27;;;;;;;3.10;0.50;;;38.90;39.40;;;;;;5018030;28;20053;-87
2023/08/20 12:35:56;;;;;;;1.70;0.60;;;39.10;38.60;;;;;;5018350;28;20018;-88
2023/08/20 12:38:22;;;;;;;3.90;0.70;;;39.00;38.30;;;;;;5018044;28;20094;-88
2023/08/20 12:40:48;;;;;;;3.58;0.57;;;39.00;37.90;;;;;;5001618;28;20029;-89
2023/08/20 12:43:13;;;;;;;4.85;0.85;;;38.90;37.70;;;;;;5018178;28;20435;-90